Time;durP1;ratioP1;P1;durP2;ratioP2;P2;SDS_P1;SDS_P2;PMS_P1;PMS_P2;Temp;Humidity;BMP_temperature;BMP_pressure;BME280_temperature;BME280_humidity;BME280_pressure;Samples;Min_cycle;Max_cycle;Signal;HPM_P1;HPM_P2
2021/11/18 00:00:27;;;;;;;52.58;27.15;;;;;;;6.99;84.18;100701.34;4988510;28;20040;-71
2021/11/18 00:02:53;;;;;;;43.90;25.65;;;;;;;6.96;84.53;100701.41;4985806;28;20494;-70
2021/11/18 00:05:21;;;;;;;46.35;24.63;;;;;;;6.94;84.72;100703.19;4971452;28;20038;-69
2021/11/18 00:07:50;;;;;;;50.03;26.88;;;;;;;6.87;84.90;100692.84;4993247;28;20038;-70
2021/11/18 00:10:26;;;;;;;40.58;23.95;;;;;;;6.88;85.35;100697.19;4987798;28;20448;-70
2021/11/18 00:12:52;;;;;;;38.28;25.02;;;;;;;6.86;84.99;100700.72;4986321;28;20140;-70
2021/11/18 00:15:18;;;;;;;46.50;24.35;;;;;;;6.84;84.97;100703.41;4988749;28;20035;-70
2021/11/18 00:17:43;;;;;;;53.20;27.60;;;;;;;6.82;85.08;100692.06;4987976;28;20030;-70
2021/11/18 00:20:13;;;;;;;55.85;28.05;;;;;;;6.81;84.92;100692.94;4987838;28;20073;-70
2021/11/18 00:22:41;;;;;;;41.60;26.73;;;;;;;6.81;85.19;100692.09;4971368;28;20042;-70
2021/11/18 00:25:06;;;;;;;54.35;29.33;;;;;;;6.78;85.05;100685.16;4988305;28;20411;-70
2021/11/18 00:27:32;;;;;;;44.00;24.75;;;;;;;6.77;85.03;100685.16;4988502;28;20077;-70
2021/11/18 00:29:57;;;;;;;48.60;25.70;;;;;;;6.75;85.26;100689.59;4988295;28;20100;-70
2021/11/18 00:32:23;;;;;;;45.60;24.50;;;;;;;6.73;85.29;100704.50;4987858;28;20065;-71
2021/11/18 00:34:48;;;;;;;42.60;24.27;;;;;;;6.72;84.95;100697.50;4970724;28;20035;-71
2021/11/18 00:37:13;;;;;;;42.50;23.88;;;;;;;6.71;85.44;100696.66;4988415;28;20030;-71
2021/11/18 00:39:39;;;;;;;36.78;22.45;;;;;;;6.70;85.00;100700.16;4988080;28;20046;-70
2021/11/18 00:42:04;;;;;;;48.80;25.95;;;;;;;6.69;85.28;100701.03;4969848;28;20094;-70
2021/11/18 00:44:29;;;;;;;58.03;27.95;;;;;;;6.63;85.28;100704.66;4987606;28;20038;-70
2021/11/18 00:46:55;;;;;;;38.72;23.38;;;;;;;6.62;85.23;100708.19;4988247;28;20029;-69
2021/11/18 00:49:21;;;;;;;62.60;30.38;;;;;;;6.59;85.42;100710.81;4970591;28;20042;-70
2021/11/18 00:51:48;;;;;;;51.45;25.08;;;;;;;6.58;85.48;100710.88;4987837;28;20450;-70
2021/11/18 00:54:15;;;;;;;51.17;26.17;;;;;;;6.58;85.57;100705.63;4990161;28;20027;-70
2021/11/18 00:56:40;;;;;;;51.92;26.50;;;;;;;6.58;85.61;100708.25;4988175;28;20054;-70
2021/11/18 00:59:06;;;;;;;49.13;26.98;;;;;;;6.56;85.58;100712.66;4987659;28;20487;-69
2021/11/18 01:01:35;;;;;;;61.35;31.42;;;;;;;6.51;85.56;100727.59;4969762;28;20048;-72
2021/11/18 01:04:01;;;;;;;51.83;27.65;;;;;;;6.50;85.97;100720.59;4970266;28;20026;-70
2021/11/18 01:06:27;;;;;;;46.10;24.20;;;;;;;6.49;86.03;100721.50;4987596;28;20037;-71
2021/11/18 01:08:52;;;;;;;49.35;27.38;;;;;;;6.51;85.86;100723.22;4970017;28;20026;-69
2021/11/18 01:11:22;;;;;;;44.17;25.55;;;;;;;6.50;85.69;100716.25;4987443;28;20127;-69
2021/11/18 01:13:50;;;;;;;38.38;24.30;;;;;;;6.48;85.45;100720.66;4987942;28;20081;-69
2021/11/18 01:16:19;;;;;;;56.25;28.42;;;;;;;6.47;85.58;100726.75;4987366;28;20034;-70
2021/11/18 01:18:45;;;;;;;50.35;27.15;;;;;;;6.44;85.59;100727.69;4987632;28;20045;-70
2021/11/18 01:21:11;;;;;;;44.80;25.85;;;;;;;6.45;85.74;100731.19;4986529;28;20117;-71
2021/11/18 01:23:39;;;;;;;44.35;25.88;;;;;;;6.45;85.85;100734.66;4987337;28;20057;-71
2021/11/18 01:26:07;;;;;;;45.60;25.63;;;;;;;6.45;86.16;100732.03;4987258;28;20037;-71
2021/11/18 01:28:33;;;;;;;50.35;26.63;;;;;;;6.45;85.60;100739.91;4987235;28;20048;-70
2021/11/18 01:30:58;;;;;;;51.05;25.30;;;;;;;6.43;85.62;100736.44;4969007;28;20034;-70
2021/11/18 01:33:24;;;;;;;49.75;26.02;;;;;;;6.41;86.01;100732.13;4986871;28;20080;-70
2021/11/18 01:35:52;;;;;;;61.35;28.00;;;;;;;6.37;86.23;100738.28;4989490;28;20077;-71
2021/11/18 01:38:18;;;;;;;52.28;27.70;;;;;;;6.35;86.02;100742.69;4989741;28;20030;-70
2021/11/18 01:40:51;;;;;;;61.97;28.63;;;;;;;6.36;86.42;100747.03;4986628;28;20066;-70
2021/11/18 01:43:18;;;;;;;62.03;30.67;;;;;;;6.32;86.30;100755.84;4969577;28;20058;-69
2021/11/18 01:45:45;;;;;;;56.22;29.73;;;;;;;6.33;86.60;100752.34;4969523;28;20494;-69
2021/11/18 01:48:10;;;;;;;66.60;30.75;;;;;;;6.33;86.51;100747.97;4986948;28;20492;-70
2021/11/18 01:50:39;;;;;;;60.92;30.33;;;;;;;6.32;86.30;100753.22;4986527;28;20031;-70
2021/11/18 01:53:10;;;;;;;53.75;27.90;;;;;;;6.31;86.58;100754.97;4987078;28;20041;-70
2021/11/18 01:55:35;;;;;;;58.92;31.23;;;;;;;6.31;86.62;100756.72;4986301;28;20516;-69
2021/11/18 01:58:01;;;;;;;56.20;30.67;;;;;;;6.28;86.35;100762.88;4986999;28;20038;-69
2021/11/18 02:00:26;;;;;;;45.72;27.13;;;;;;;6.28;86.58;100762.88;4968071;28;20037;-69
2021/11/18 02:02:52;;;;;;;45.95;24.90;;;;;;;6.28;86.55;100762.03;4979938;28;20030;-70
2021/11/18 02:05:34;;;;;;;47.78;25.77;;;;;;;6.26;86.63;100753.31;4988353;28;20042;-71
2021/11/18 02:08:00;;;;;;;47.67;24.00;;;;;;;6.27;86.72;100763.75;4987426;28;20034;-71
2021/11/18 02:10:35;;;;;;;54.22;24.77;;;;;;;6.28;86.67;100759.41;4986318;28;20042;-71
2021/11/18 02:13:03;;;;;;;40.40;23.60;;;;;;;6.27;86.43;100749.81;4986419;28;20554;-70
2021/11/18 02:15:36;;;;;;;47.28;24.70;;;;;;;6.22;86.70;100762.97;4985500;28;20278;-70
2021/11/18 02:18:10;;;;;;;53.55;24.73;;;;;;;6.22;86.69;100755.97;4986077;28;20376;-71
2021/11/18 02:20:36;;;;;;;56.13;26.60;;;;;;;6.23;87.02;100756.88;4985146;28;20038;-70
2021/11/18 02:23:13;;;;;;;54.92;25.25;;;;;;;6.24;87.00;100753.34;4968536;28;20037;-70
2021/11/18 02:25:38;;;;;;;52.90;26.40;;;;;;;6.23;86.61;100760.34;4985737;28;20061;-70
2021/11/18 02:28:04;;;;;;;50.08;24.73;;;;;;;6.24;86.83;100767.28;4986069;28;20050;-71
2021/11/18 02:30:38;;;;;;;53.25;25.45;;;;;;;6.28;87.05;100775.13;4986419;28;20105;-70
2021/11/18 02:33:05;;;;;;;34.83;20.45;;;;;;;6.29;87.09;100772.47;4971002;28;20491;-69
2021/11/18 02:35:32;;;;;;;47.58;22.70;;;;;;;6.33;86.75;100778.53;4989997;28;20054;-71
2021/11/18 02:37:58;;;;;;;48.47;25.48;;;;;;;6.36;86.44;100781.09;4986326;28;20102;-69
2021/11/18 02:40:26;;;;;;;37.13;22.80;;;;;;;6.38;86.32;100779.31;4985466;28;20038;-69
2021/11/18 02:42:54;;;;;;;42.08;21.75;;;;;;;6.39;86.69;100781.03;4986415;28;20030;-70
2021/11/18 02:45:24;;;;;;;36.33;19.70;;;;;;;6.41;86.27;100779.25;4985794;28;20053;-69
2021/11/18 02:47:49;;;;;;;44.53;23.08;;;;;;;6.41;86.72;100779.25;5006122;28;20433;-70
2021/11/18 02:50:19;;;;;;;37.15;22.23;;;;;;;6.42;86.41;100786.22;5004820;28;20191;-70
2021/11/18 02:52:45;;;;;;;42.63;21.95;;;;;;;6.40;86.42;100781.03;5004759;28;20062;-70
2021/11/18 02:55:17;;;;;;;32.92;20.13;;;;;;;6.40;86.35;100786.25;5005600;28;20104;-71
2021/11/18 02:57:43;;;;;;;44.88;23.08;;;;;;;6.41;86.40;100781.88;4995612;28;20066;-71
2021/11/18 03:00:24;;;;;;;33.85;19.35;;;;;;;6.41;86.50;100785.34;4989312;28;20040;-71
2021/11/18 03:02:50;;;;;;;38.83;20.42;;;;;;;6.39;86.45;100786.28;5006604;28;20030;-70
2021/11/18 03:05:18;;;;;;;41.13;21.38;;;;;;;6.40;86.29;100790.66;5006289;28;20564;-70
2021/11/18 03:07:44;;;;;;;51.67;22.80;;;;;;;6.37;85.95;100782.81;5004223;28;20037;-71
2021/11/18 03:10:10;;;;;;;37.97;22.17;;;;;;;6.36;86.22;100776.72;5005037;28;20030;-71
2021/11/18 03:12:37;;;;;;;40.78;23.23;;;;;;;6.32;86.53;100775.03;5006144;28;20045;-71
2021/11/18 03:15:04;;;;;;;43.75;21.60;;;;;;;6.32;86.15;100779.41;5008596;28;20045;-71
2021/11/18 03:17:29;;;;;;;45.78;23.88;;;;;;;6.30;85.97;100774.22;5011688;28;20123;-71
2021/11/18 03:19:54;;;;;;;41.42;21.88;;;;;;;6.31;86.62;100772.44;5012155;28;20116;-69
2021/11/18 03:22:20;;;;;;;51.08;26.92;;;;;;;6.28;86.45;100778.59;4991211;28;20038;-69
2021/11/18 03:24:45;;;;;;;48.85;21.63;;;;;;;6.27;86.27;100773.38;4991908;28;20473;-69
2021/11/18 03:27:10;;;;;;;43.55;22.23;;;;;;;6.24;86.15;100771.66;5009250;28;20093;-69
2021/11/18 03:29:36;;;;;;;41.28;20.98;;;;;;;6.24;86.59;100761.19;4991361;28;20123;-69
2021/11/18 03:32:04;;;;;;;45.22;24.15;;;;;;;6.23;86.43;100764.72;5008043;28;20026;-70
2021/11/18 03:34:30;;;;;;;41.38;21.75;;;;;;;6.24;86.35;100764.69;5008422;28;20603;-70
2021/11/18 03:36:56;;;;;;;49.05;22.92;;;;;;;6.20;86.62;100765.63;5009298;28;20117;-70
2021/11/18 03:39:23;;;;;;;32.58;18.65;;;;;;;6.24;86.76;100774.28;5008408;28;20045;-70
2021/11/18 03:41:50;;;;;;;39.20;20.55;;;;;;;6.22;86.39;100773.44;5009072;28;20042;-70
2021/11/18 03:44:18;;;;;;;46.78;24.75;;;;;;;6.21;86.43;100793.53;5011932;28;20037;-70
2021/11/18 03:46:50;;;;;;;49.40;23.35;;;;;;;6.18;86.59;100785.72;5023140;28;20523;-69
2021/11/18 03:49:17;;;;;;;49.00;24.15;;;;;;;6.18;86.20;100784.88;5012973;28;20030;-69
2021/11/18 03:51:44;;;;;;;49.28;24.70;;;;;;;6.19;86.68;100770.88;5010749;28;20042;-70
2021/11/18 03:54:11;;;;;;;51.83;25.15;;;;;;;6.14;86.53;100763.09;5011178;28;20057;-70
2021/11/18 03:56:40;;;;;;;53.60;27.00;;;;;;;6.12;86.78;100770.09;5011762;28;20759;-70
2021/11/18 03:59:11;;;;;;;41.28;23.25;;;;;;;6.12;87.16;100771.84;5011745;28;20045;-72
2021/11/18 04:01:38;;;;;;;42.33;20.48;;;;;;;6.11;87.07;100775.38;5008142;28;20853;-71
2021/11/18 04:04:06;;;;;;;34.25;19.88;;;;;;;6.10;86.80;100779.72;5007944;28;20512;-71
2021/11/18 04:06:32;;;;;;;43.75;21.30;;;;;;;6.12;86.82;100782.34;4990346;28;20564;-70
2021/11/18 04:08:57;;;;;;;48.33;22.15;;;;;;;6.14;87.09;100791.03;5008811;28;20042;-70
2021/11/18 04:11:23;;;;;;;44.13;23.70;;;;;;;6.12;86.77;100787.56;5007906;28;20113;-69
2021/11/18 04:13:49;;;;;;;44.00;19.88;;;;;;;6.11;87.00;100788.47;4984808;28;20185;-70
2021/11/18 04:16:14;;;;;;;48.70;21.20;;;;;;;6.10;86.67;100787.56;4970948;28;20030;-70
2021/11/18 04:18:39;;;;;;;37.05;21.92;;;;;;;6.10;86.92;100786.72;4988206;28;20567;-71
2021/11/18 04:21:05;;;;;;;42.20;21.17;;;;;;;6.10;87.04;100779.72;4987965;28;20034;-70
2021/11/18 04:23:31;;;;;;;48.28;23.17;;;;;;;6.08;87.32;100776.28;4988330;28;20057;-71
2021/11/18 04:25:56;;;;;;;40.58;21.58;;;;;;;6.09;87.27;100772.78;4987181;28;20445;-70
2021/11/18 04:28:23;;;;;;;41.05;20.70;;;;;;;6.10;87.22;100768.41;4987875;28;20042;-73
2021/11/18 04:30:50;;;;;;;39.47;21.60;;;;;;;6.12;87.08;100770.09;4987410;28;20035;-70
2021/11/18 04:33:16;;;;;;;43.75;23.25;;;;;;;6.11;87.00;100776.25;4987623;28;20034;-70
2021/11/18 04:35:41;;;;;;;45.53;22.75;;;;;;;6.12;86.75;100780.56;4988557;28;20525;-70
2021/11/18 04:38:07;;;;;;;42.97;22.25;;;;;;;6.15;86.86;100779.66;4987343;28;20506;-70
2021/11/18 04:40:34;;;;;;;40.67;20.63;;;;;;;6.15;86.77;100777.94;4986660;28;20050;-70
2021/11/18 04:43:01;;;;;;;41.88;22.48;;;;;;;6.18;87.03;100782.25;4988415;28;20038;-70
2021/11/18 04:45:26;;;;;;;37.50;20.50;;;;;;;6.19;86.77;100774.34;4970626;28;20157;-70
2021/11/18 04:47:52;;;;;;;39.97;19.52;;;;;;;6.21;86.48;100777.81;4970662;28;20483;-70
2021/11/18 04:50:19;;;;;;;43.83;23.33;;;;;;;6.24;86.33;100777.75;4969759;28;20700;-71
2021/11/18 04:52:45;;;;;;;40.97;21.25;;;;;;;6.27;86.01;100783.84;5003483;28;20037;-70
2021/11/18 04:55:13;;;;;;;45.72;21.63;;;;;;;6.30;86.54;100795.16;5007505;28;20401;-70
2021/11/18 04:57:38;;;;;;;32.05;18.77;;;;;;;6.35;86.38;100800.28;5007814;28;20041;-70
2021/11/18 05:00:11;;;;;;;40.38;20.00;;;;;;;6.39;86.26;100802.00;5008963;28;20029;-71
2021/11/18 05:02:37;;;;;;;40.35;21.20;;;;;;;6.42;86.30;100809.78;5007644;28;20056;-70
2021/11/18 05:05:04;;;;;;;38.50;21.27;;;;;;;6.45;86.11;100815.88;4989582;28;20097;-70
2021/11/18 05:07:29;;;;;;;39.33;22.40;;;;;;;6.50;85.49;100814.91;5007611;28;20045;-70
2021/11/18 05:09:55;;;;;;;41.05;20.48;;;;;;;6.50;85.59;100814.91;5004531;28;20037;-70
2021/11/18 05:12:20;;;;;;;45.47;21.80;;;;;;;6.53;85.58;100812.25;5004907;28;20046;-70
2021/11/18 05:14:46;;;;;;;35.92;19.25;;;;;;;6.55;85.39;100816.59;4973245;28;20033;-70
2021/11/18 05:17:11;;;;;;;33.05;21.02;;;;;;;6.57;85.25;100811.31;4989688;28;20026;-70
2021/11/18 05:19:36;;;;;;;41.83;21.15;;;;;;;6.57;84.91;100812.19;5005679;28;20034;-71
2021/11/18 05:22:02;;;;;;;37.15;18.50;;;;;;;6.57;85.01;100808.69;4981424;28;20522;-71
2021/11/18 05:24:28;;;;;;;40.53;19.88;;;;;;;6.56;85.12;100805.19;4987703;28;20041;-70
2021/11/18 05:26:53;;;;;;;31.90;18.50;;;;;;;6.54;85.32;100811.34;4986014;28;20042;-69
2021/11/18 05:29:18;;;;;;;37.00;19.55;;;;;;;6.52;84.95;100803.53;4957185;28;20035;-70
2021/11/18 05:31:44;;;;;;;37.92;18.45;;;;;;;6.49;84.71;100807.94;4967506;28;20562;-69
2021/11/18 05:34:09;;;;;;;35.45;19.35;;;;;;;6.49;84.78;100805.34;4969056;28;20043;-71
2021/11/18 05:36:35;;;;;;;29.67;16.67;;;;;;;6.45;84.91;100808.00;4967800;28;20039;-73
2021/11/18 05:39:02;;;;;;;28.83;17.13;;;;;;;6.44;84.62;100813.25;4968947;28;20398;-71
2021/11/18 05:41:28;;;;;;;33.10;18.65;;;;;;;6.41;85.07;100808.06;4967636;28;20109;-70
2021/11/18 05:43:56;;;;;;;35.55;20.10;;;;;;;6.40;84.92;100808.97;4967270;28;20602;-71
2021/11/18 05:46:21;;;;;;;33.65;16.33;;;;;;;6.40;84.94;100806.34;4967308;28;20506;-71
2021/11/18 05:48:47;;;;;;;34.92;18.60;;;;;;;6.40;84.71;100808.97;4967661;28;20034;-71
2021/11/18 05:51:14;;;;;;;34.42;19.38;;;;;;;6.36;84.65;100802.03;4966287;28;20538;-70
2021/11/18 05:53:43;;;;;;;32.47;18.27;;;;;;;6.33;84.90;100813.44;4967513;28;20039;-72
2021/11/18 05:56:12;;;;;;;38.08;21.02;;;;;;;6.31;84.87;100806.50;4967589;28;20109;-70
2021/11/18 05:58:41;;;;;;;31.83;18.02;;;;;;;6.28;84.55;100809.16;4968378;28;20515;-70
2021/11/18 06:01:07;;;;;;;37.40;20.30;;;;;;;6.20;85.23;100812.75;4969543;28;20495;-69
2021/11/18 06:03:35;;;;;;;35.88;20.67;;;;;;;6.18;85.58;100804.06;4962952;28;20074;-71
2021/11/18 06:06:01;;;;;;;38.97;21.02;;;;;;;6.17;85.52;100815.41;4965428;28;20037;-71
2021/11/18 06:08:26;;;;;;;38.88;20.77;;;;;;;6.16;85.80;100812.81;4967533;28;20031;-70
2021/11/18 06:10:53;;;;;;;41.50;20.95;;;;;;;6.13;85.58;100816.34;4965935;28;20039;-69
2021/11/18 06:13:19;;;;;;;42.08;22.48;;;;;;;6.12;86.06;100825.06;4950286;28;20090;-70
2021/11/18 06:15:45;;;;;;;36.90;20.63;;;;;;;6.11;85.93;100835.59;4970725;28;20444;-71
2021/11/18 06:18:11;;;;;;;32.85;20.33;;;;;;;6.11;86.44;100832.97;4988578;28;20058;-71
2021/11/18 06:20:36;;;;;;;44.67;23.27;;;;;;;6.10;86.20;100842.56;4985872;28;20379;-71
2021/11/18 06:23:04;;;;;;;33.72;20.58;;;;;;;6.05;86.27;100836.50;4987251;28;20117;-71
2021/11/18 06:25:30;;;;;;;40.25;20.85;;;;;;;6.06;86.66;100835.66;4988805;28;20758;-70
2021/11/18 06:27:56;;;;;;;32.75;19.38;;;;;;;6.07;86.45;100839.13;4987735;28;20054;-70
2021/11/18 06:30:29;;;;;;;41.13;21.98;;;;;;;6.05;86.55;100835.66;4969176;28;20038;-72
2021/11/18 06:32:56;;;;;;;30.67;19.15;;;;;;;6.06;86.59;100830.41;4986132;28;20042;-69
2021/11/18 06:35:21;;;;;;;35.97;19.33;;;;;;;6.02;86.89;100833.94;4966875;28;20039;-69
2021/11/18 06:37:48;;;;;;;37.55;20.10;;;;;;;6.04;86.74;100828.72;4967097;28;20046;-70
2021/11/18 06:40:16;;;;;;;41.30;20.40;;;;;;;6.04;86.78;100820.84;4961152;28;20119;-72
2021/11/18 06:42:43;;;;;;;47.42;23.92;;;;;;;6.05;86.93;100817.34;4968510;28;20129;-72
2021/11/18 06:45:12;;;;;;;60.88;22.75;;;;;;;6.04;86.80;100820.84;4953628;28;20093;-71
2021/11/18 06:47:37;;;;;;;37.85;21.13;;;;;;;6.02;87.01;100823.47;4966612;28;20046;-71
2021/11/18 06:50:03;;;;;;;39.70;19.98;;;;;;;6.06;86.51;100819.94;4956631;28;20042;-69
2021/11/18 06:52:29;;;;;;;44.50;20.92;;;;;;;6.10;86.74;100818.13;4990738;28;20034;-71
2021/11/18 06:54:55;;;;;;;40.95;21.30;;;;;;;6.12;86.52;100821.59;4989633;28;20034;-69
2021/11/18 06:57:20;;;;;;;32.50;20.55;;;;;;;6.12;86.60;100817.22;4989422;28;20121;-71
2021/11/18 06:59:46;;;;;;;41.78;19.10;;;;;;;6.15;86.65;100825.06;4990428;28;20062;-71
2021/11/18 07:02:12;;;;;;;37.03;20.42;;;;;;;6.19;86.56;100816.25;4971769;28;20042;-70
2021/11/18 07:04:38;;;;;;;33.38;20.58;;;;;;;6.22;86.39;100813.56;4989350;28;20109;-70
2021/11/18 07:07:04;;;;;;;38.15;19.90;;;;;;;6.26;86.48;100810.94;4979873;28;20034;-70
2021/11/18 07:09:29;;;;;;;35.75;20.02;;;;;;;6.31;86.32;100816.97;4989377;28;20045;-71
2021/11/18 07:11:55;;;;;;;39.17;21.05;;;;;;;6.32;85.93;100823.91;4989271;28;20038;-71
2021/11/18 07:14:21;;;;;;;37.08;19.50;;;;;;;6.35;85.85;100822.13;4972109;28;20034;-72
2021/11/18 07:16:47;;;;;;;35.33;19.38;;;;;;;6.41;85.63;100831.66;4989706;28;20039;-72
2021/11/18 07:19:12;;;;;;;39.70;20.65;;;;;;;6.45;85.52;100834.19;4989283;28;20566;-70
2021/11/18 07:21:38;;;;;;;31.10;18.08;;;;;;;6.48;85.28;100840.28;4988721;28;20065;-71
2021/11/18 07:24:06;;;;;;;32.08;18.92;;;;;;;6.53;85.04;100846.31;4989349;28;20034;-70
2021/11/18 07:26:35;;;;;;;38.70;20.95;;;;;;;6.54;85.11;100848.91;4972525;28;20031;-72
2021/11/18 07:29:01;;;;;;;42.33;21.60;;;;;;;6.58;84.98;100854.97;4989464;28;20046;-71
2021/11/18 07:31:26;;;;;;;37.78;20.63;;;;;;;6.59;84.79;100854.91;4988975;28;20450;-70
2021/11/18 07:33:53;;;;;;;42.65;21.20;;;;;;;6.67;84.71;100867.94;4989689;28;20039;-70
2021/11/18 07:36:18;;;;;;;35.22;20.75;;;;;;;6.73;84.54;100862.56;4989923;28;20030;-74
2021/11/18 07:38:44;;;;;;;39.78;20.17;;;;;;;6.73;84.20;100866.97;4989048;28;20227;-69
2021/11/18 07:41:10;;;;;;;37.33;19.88;;;;;;;6.77;84.03;100856.41;4988794;28;20037;-71
2021/11/18 07:43:39;;;;;;;31.55;17.83;;;;;;;6.80;84.07;100858.13;4989181;28;20482;-72
2021/11/18 07:46:06;;;;;;;34.20;17.63;;;;;;;6.82;83.55;100856.34;4989377;28;20038;-71
2021/11/18 07:48:32;;;;;;;31.50;18.17;;;;;;;6.84;83.52;100858.03;4989296;28;20446;-71
2021/11/18 07:50:59;;;;;;;36.45;20.38;;;;;;;6.87;83.64;100868.47;4987547;28;20092;-70
2021/11/18 07:53:25;;;;;;;29.83;17.05;;;;;;;6.95;83.29;100857.84;4984703;28;20045;-70
2021/11/18 07:55:50;;;;;;;36.42;16.98;;;;;;;7.00;83.09;100860.41;4987990;28;20041;-70
2021/11/18 07:58:16;;;;;;;31.60;17.98;;;;;;;7.00;82.79;100863.88;4988403;28;20155;-71
2021/11/18 08:00:46;;;;;;;28.42;17.02;;;;;;;7.06;82.80;100868.13;4986547;28;20097;-71
2021/11/18 08:03:13;;;;;;;32.75;15.85;;;;;;;7.08;82.36;100871.59;4988485;28;20092;-70
2021/11/18 08:05:39;;;;;;;31.25;15.82;;;;;;;7.15;82.09;100870.59;4987961;28;20129;-71
2021/11/18 08:08:05;;;;;;;26.60;14.98;;;;;;;7.22;81.62;100868.75;4988533;28;20042;-70
2021/11/18 08:10:30;;;;;;;30.20;16.30;;;;;;;7.24;81.88;100867.81;4970026;28;20568;-72
2021/11/18 08:12:56;;;;;;;34.15;17.02;;;;;;;7.25;81.48;100872.16;4987872;28;20034;-71
2021/11/18 08:15:21;;;;;;;36.17;17.17;;;;;;;7.28;81.32;100871.25;4987955;28;20109;-71
2021/11/18 08:17:47;;;;;;;25.20;13.25;;;;;;;7.34;81.06;100886.88;4988635;28;20034;-70
2021/11/18 08:20:15;;;;;;;30.13;15.90;;;;;;;7.40;80.97;100886.75;4987270;28;20034;-72
2021/11/18 08:22:42;;;;;;;28.50;15.88;;;;;;;7.45;80.56;100881.44;4984907;28;20035;-75
2021/11/18 08:25:10;;;;;;;36.78;16.00;;;;;;;7.49;80.56;100873.47;4988321;28;20045;-73
2021/11/18 08:27:38;;;;;;;42.72;15.77;;;;;;;7.47;80.33;100870.00;4970966;28;20096;-73
2021/11/18 08:30:06;;;;;;;32.40;14.77;;;;;;;7.54;80.38;100883.88;4989082;28;20113;-73
2021/11/18 08:32:32;;;;;;;36.72;16.75;;;;;;;7.59;79.89;100868.06;4987960;28;20101;-72
2021/11/18 08:34:57;;;;;;;30.88;16.05;;;;;;;7.60;80.23;100875.03;4989224;28;20538;-71
2021/11/18 08:37:22;;;;;;;27.35;14.63;;;;;;;7.68;80.36;100874.00;4989375;28;20061;-73
2021/11/18 08:39:49;;;;;;;30.35;15.00;;;;;;;7.72;79.40;100880.88;4989356;28;20034;-73
2021/11/18 08:42:17;;;;;;;34.58;16.17;;;;;;;7.77;79.61;100886.06;4988611;28;20037;-70
2021/11/18 08:44:43;;;;;;;26.70;13.32;;;;;;;7.81;79.21;100879.00;4987295;28;20177;-72
2021/11/18 08:47:11;;;;;;;23.00;13.13;;;;;;;7.88;78.51;100891.97;4988179;28;20550;-72
2021/11/18 08:49:37;;;;;;;32.10;13.32;;;;;;;7.89;78.58;100882.31;4988530;28;20035;-72
2021/11/18 08:52:08;;;;;;;33.78;13.50;;;;;;;7.89;79.01;100885.81;4977786;28;20487;-70
2021/11/18 08:54:36;;;;;;;24.75;13.07;;;;;;;7.95;78.71;100888.31;4958201;28;20121;-70
2021/11/18 08:57:03;;;;;;;26.83;12.38;;;;;;;8.01;78.36;100894.34;4978404;28;20045;-72
2021/11/18 08:59:28;;;;;;;26.35;11.63;;;;;;;8.05;78.51;100896.88;4968083;28;20050;-71
2021/11/18 09:01:59;;;;;;;22.50;13.00;;;;;;;8.12;77.92;100905.47;4976222;28;20030;-69
2021/11/18 09:04:25;;;;;;;28.67;12.15;;;;;;;8.19;77.98;100901.81;4981929;28;20041;-70
2021/11/18 09:06:51;;;;;;;28.10;12.27;;;;;;;8.21;77.72;100899.16;4994869;28;20775;-70
2021/11/18 09:09:19;;;;;;;24.83;12.35;;;;;;;8.24;77.52;100894.69;4976330;28;20042;-71
2021/11/18 09:11:46;;;;;;;28.67;11.50;;;;;;;8.21;77.83;100907.91;4955946;28;20046;-70
2021/11/18 09:14:14;;;;;;;25.27;11.90;;;;;;;8.26;77.51;100913.94;4957810;28;20503;-70
2021/11/18 09:16:41;;;;;;;22.55;11.57;;;;;;;8.31;77.30;100917.31;4975198;28;20534;-71
2021/11/18 09:19:10;;;;;;;26.92;12.73;;;;;;;8.38;77.11;100923.31;4976034;28;20049;-69
2021/11/18 09:21:36;;;;;;;25.00;10.85;;;;;;;8.40;76.78;100920.69;4974662;28;20042;-70
2021/11/18 09:24:09;;;;;;;25.08;10.60;;;;;;;8.40;76.04;100921.56;4976176;28;20042;-70
2021/11/18 09:26:38;;;;;;;19.40;10.30;;;;;;;8.48;76.43;100929.25;4981283;28;20046;-70
2021/11/18 09:29:05;;;;;;;29.77;10.98;;;;;;;8.54;76.74;100932.63;4988033;28;20031;-70
2021/11/18 09:31:31;;;;;;;20.23;11.45;;;;;;;8.65;75.92;100931.50;4987620;28;20124;-71
2021/11/18 09:33:57;;;;;;;37.40;12.77;;;;;;;8.69;75.51;100920.91;4988233;28;20054;-70
2021/11/18 09:36:25;;;;;;;30.77;11.60;;;;;;;8.76;74.64;100917.22;4988213;28;20042;-71
2021/11/18 09:38:52;;;;;;;21.23;9.85;;;;;;;8.87;75.23;100905.59;4988547;28;20041;-71
2021/11/18 09:41:34;;;;;;;23.15;8.85;;;;;;;8.99;75.10;100910.53;4988464;28;20183;-70
2021/11/18 09:44:36;;;;;;;19.05;9.23;;;;;;;9.01;74.86;100911.38;4987715;28;20068;-71
2021/11/18 09:47:13;;;;;;;21.67;9.43;;;;;;;9.04;74.75;100913.94;4987682;28;20034;-71
2021/11/18 09:50:16;;;;;;;28.95;10.73;;;;;;;9.08;73.76;100914.69;4988827;28;20030;-70
2021/11/18 09:52:49;;;;;;;24.25;9.45;;;;;;;9.07;74.12;100921.72;4983484;28;20502;-71
2021/11/18 09:55:18;;;;;;;19.55;8.90;;;;;;;9.14;74.13;100928.56;4980866;28;20138;-71
2021/11/18 09:58:06;;;;;;;20.50;8.90;;;;;;;9.16;74.18;100929.41;4986191;28;20599;-69
2021/11/18 10:00:53;;;;;;;26.95;8.57;;;;;;;9.16;73.34;100926.78;4969719;28;20043;-70
2021/11/18 10:03:29;;;;;;;26.25;9.75;;;;;;;9.15;73.98;100927.66;4987815;28;20030;-71
2021/11/18 10:06:13;;;;;;;;;;;;;;;9.14;74.07;100931.19;4987818;28;20034;-71
2021/11/18 10:08:51;;;;;;;20.35;8.85;;;;;;;9.14;73.66;100930.34;4987561;28;19914;-71
2021/11/18 10:11:37;;;;;;;26.70;10.68;;;;;;;9.21;73.88;100922.25;4989749;28;20026;-69
2021/11/18 10:14:08;;;;;;;19.65;8.45;;;;;;;9.26;73.55;100916.03;4987731;28;20030;-70
2021/11/18 10:16:41;;;;;;;29.05;9.52;;;;;;;9.43;72.85;100919.94;4971216;28;20216;-71
2021/11/18 10:19:08;;;;;;;23.73;9.68;;;;;;;9.58;72.25;100929.19;4990446;28;20525;-70
2021/11/18 10:21:41;;;;;;;20.90;8.77;;;;;;;9.78;71.18;100925.16;4990356;28;20035;-70
2021/11/18 10:24:11;;;;;;;20.33;7.95;;;;;;;9.75;71.41;100930.53;4989838;28;20072;-70
2021/11/18 10:26:49;;;;;;;21.13;10.57;;;;;;;9.84;71.34;100928.47;4989799;28;20042;-69
2021/11/18 10:29:24;;;;;;;21.08;8.65;;;;;;;9.88;71.03;100931.91;4988809;28;20038;-72
2021/11/18 10:31:55;;;;;;;19.43;8.27;;;;;;;9.93;70.71;100935.25;4986943;28;20050;-70
2021/11/18 10:34:31;;;;;;;28.23;9.25;;;;;;;9.98;70.57;100938.63;4988263;28;20049;-71
2021/11/18 10:37:02;;;;;;;22.27;9.43;;;;;;;9.96;70.02;100934.31;4986919;28;20045;-71
2021/11/18 10:39:40;;;;;;;21.85;7.50;;;;;;;9.97;70.10;100926.38;4970095;28;20042;-70
2021/11/18 10:42:19;;;;;;;29.73;8.48;;;;;;;10.00;69.87;100928.06;4986736;28;20042;-70
2021/11/18 10:45:08;;;;;;;19.92;8.30;;;;;;;9.97;70.28;100928.13;4987041;28;20071;-70
2021/11/18 10:47:54;;;;;;;19.13;8.07;;;;;;;9.96;70.01;100929.91;4987097;28;20521;-69
2021/11/18 10:50:38;;;;;;;21.13;8.55;;;;;;;10.11;70.21;100933.88;4987450;28;20182;-71
2021/11/18 10:53:15;;;;;;;23.20;8.38;;;;;;;10.16;69.95;100931.09;4987638;28;20108;-71
2021/11/18 10:55:45;;;;;;;24.02;8.30;;;;;;;10.20;69.94;100924.84;4990119;28;20542;-71
2021/11/18 10:58:27;;;;;;;23.63;10.50;;;;;;;10.27;69.77;100926.38;4991131;28;20115;-70
2021/11/18 11:01:25;;;;;;;24.27;7.03;;;;;;;10.32;69.64;100919.25;4986749;28;20042;-70
2021/11/18 11:04:03;;;;;;;22.13;7.85;;;;;;;10.35;69.38;100916.50;4967611;28;20038;-70
2021/11/18 11:06:43;;;;;;;19.10;9.00;;;;;;;10.39;69.56;100912.03;4986868;28;20464;-71
2021/11/18 11:09:08;;;;;;;23.60;8.35;;;;;;;10.41;68.93;100907.53;4987269;28;20035;-70
2021/11/18 11:11:36;;;;;;;23.02;7.95;;;;;;;10.46;69.10;100903.88;4986150;28;20596;-70
2021/11/18 11:14:32;;;;;;;22.83;11.27;;;;;;;10.60;69.17;100897.28;4968954;28;20030;-70
2021/11/18 11:17:22;;;;;;;14.32;7.53;;;;;;;10.56;68.69;100904.44;4987067;28;20140;-69
2021/11/18 11:19:56;;;;;;;25.58;9.65;;;;;;;10.57;68.34;100897.41;4986729;28;20038;-70
2021/11/18 11:22:27;;;;;;;22.70;7.95;;;;;;;10.56;68.11;100896.53;4986595;28;20034;-70